الصفحة الرئيسية
METAR-TAF:

METAR-TAF

مطار :

Mae Hong Son, تايلاند

دائرة عرض: 19-18N, خط طول: 097-50E, ارتفاع: 267 متر

مراقبة الطقس الحالي

تاريخ ووقت الإصدار 10ساعات و 50 دقيقة قبل الساعة 11:00UTC
ريح 7 عقدة من الجنوب الغربي
درجة الحرارة 32°درجة مئوية
الرطوبة 63%
ضغط 1001 hPa
الرؤية 10 كم أو أكثر
غيوم قليلة على ارتفاع 2000 قدم, مزنة ركامية.
غيوم مفككة على ارتفاع 2500 قدم
زخات في الجوار

METAR: VTCH 021100Z 22007KT 9999 VCSH FEW020CB BKN025 32/24 Q1001

زمن: 04:50 (21:50 UTC)

توقعات

تاريخ ووقت الإصدار 4ساعات و 50 دقيقة قبل الساعة 17:00UTC
التوقعات صالحة من02 الساعة 18 UTC إلى 03 الساعة 18 UTC
ريح 5 عقدة من الجنوب الغربي
الرؤية 10 كم أو أكثر
غيوم متفرقة على ارتفاع 2500 قدم
مؤقت
من 03 الساعة 07 UTC إلى 03 الساعة 13 UTC
ريح 15 عقدة من الغرب/الجنوب الغربي تتزايد حتى 30 عقدة
الرؤية: 4000 متر
غيوم قليلة على ارتفاع 1800 قدم, مزنة ركامية.
غيوم مفككة على ارتفاع 2500 قدم
عاصفة رعدية, مطر

TAF: VTCH 021700Z 0218/0318 22005KT 9999 SCT025 TEMPO 0307/0313 24015G30KT 4000 TSRA FEW018CB BKN025

أرصاد الطقس والتوقعات من أكثر من 4000 مطار (تقارير الطقس للمطار METAR والتنبؤ بالطقس بالمطارTAF).

المحطات المتاحة هي النقط الصفراء والحمراء على الخريطة.

حرك المؤشر فوق النقطة لمعرفة اسم المحطة.

ثم انقر لمعرفة أرصاد وتوقعات الطقس.

لتغيير الخارطة: اضغط على الأزرار الخضراء مع رمز الصليب الأسود للتكبير. على الزر الأخضر مع شرطة للتصغير، أو على الأسهم الخضراء للخرائط المجاورة.


METAR-TAF: